La rose des vents
Donnes mto: Semaine 03/09/07 - 09/09/07 (S 36)
Date Horaire Temp. E. Hum. E. P.atmo. Pluie Vent 1mn Direction Ensoleilleme Ev.Tr. Solaire P. de rose Temp au vent Rafales
03/09/2007 00:00 18,3 C 84 % 1013,7 hPa 0,0 l/m 0,1 km/h (0 Bft) NO 0,00 h 0,025 mm 0 W/m 15,5 C 18,3 C 0,9 km/h (0 Bft)
03/09/2007 01:00 18,1 C 85 % 1013,3 hPa 0,0 l/m 1,1 km/h (1 Bft) NO 0,00 h 0,025 mm 0 W/m 15,5 C 18,1 C 2,3 km/h (1 Bft)
03/09/2007 02:00 18,1 C 81 % 1012,7 hPa 0,0 l/m 5,3 km/h (1 Bft) O 0,00 h 0,025 mm 0 W/m 14,8 C 18,1 C 6,8 km/h (2 Bft)
03/09/2007 03:00 17,8 C 76 % 1012,6 hPa 0,0 l/m 4,1 km/h (1 Bft) O 0,00 h 0,025 mm 0 W/m 13,6 C 17,8 C 5,8 km/h (1 Bft)
03/09/2007 04:00 17,3 C 77 % 1012,6 hPa 0,0 l/m 2,4 km/h (1 Bft) N 0,00 h 0,025 mm 0 W/m 13,1 C 17,3 C 5,1 km/h (1 Bft)
03/09/2007 05:00 17,3 C 80 % 1012,4 hPa 0,0 l/m 1,5 km/h (1 Bft) N 0,00 h 0,025 mm 0 W/m 13,8 C 17,3 C 3,8 km/h (1 Bft)
03/09/2007 06:00 16,6 C 82 % 1012,2 hPa 0,0 l/m 2,8 km/h (1 Bft) N 0,00 h 0,025 mm 5 W/m 13,5 C 16,6 C 5,1 km/h (1 Bft)
03/09/2007 07:00 16,9 C 80 % 1012,3 hPa 0,0 l/m 1,5 km/h (1 Bft) E-NE 0,03 h 0,025 mm 25 W/m 13,4 C 16,9 C 3,2 km/h (1 Bft)
03/09/2007 08:00 18,6 C 72 % 1012,2 hPa 0,0 l/m 3,7 km/h (1 Bft) E-NE 0,35 h 0,025 mm 128 W/m 13,5 C 18,6 C 6,3 km/h (2 Bft)
03/09/2007 09:00 22,1 C 65 % 1012,0 hPa 0,0 l/m 5,8 km/h (2 Bft) NE 1,00 h 0,102 mm 366 W/m 15,3 C 22,1 C 9,0 km/h (2 Bft)
03/09/2007 10:00 23,7 C 68 % 1012,1 hPa 0,0 l/m 7,5 km/h (2 Bft) E 0,93 h 0,254 mm 518 W/m 17,4 C 23,7 C 11,9 km/h (2 Bft)
03/09/2007 11:00 24,5 C 67 % 1012,1 hPa 0,0 l/m 8,4 km/h (2 Bft) E 0,95 h 0,356 mm 676 W/m 18,1 C 24,5 C 13,5 km/h (3 Bft)
03/09/2007 12:00 25,4 C 62 % 1011,9 hPa 0,0 l/m 7,5 km/h (2 Bft) E 0,97 h 0,457 mm 744 W/m 17,6 C 25,4 C 12,9 km/h (3 Bft)
03/09/2007 13:00 25,7 C 60 % 1011,4 hPa 0,0 l/m 8,4 km/h (2 Bft) E 1,00 h 0,508 mm 747 W/m 17,3 C 25,7 C 14,8 km/h (3 Bft)
03/09/2007 14:00 25,6 C 62 % 1010,9 hPa 0,0 l/m 8,9 km/h (2 Bft) E 1,00 h 0,533 mm 715 W/m 17,6 C 25,6 C 15,5 km/h (3 Bft)
03/09/2007 15:00 25,1 C 65 % 1010,4 hPa 0,0 l/m 8,5 km/h (2 Bft) E 1,00 h 0,508 mm 646 W/m 18,0 C 25,1 C 14,2 km/h (3 Bft)
03/09/2007 16:00 24,7 C 64 % 1010,1 hPa 0,0 l/m 7,9 km/h (2 Bft) E 1,00 h 0,457 mm 533 W/m 17,4 C 24,7 C 13,0 km/h (3 Bft)
03/09/2007 17:00 23,2 C 70 % 1009,7 hPa 0,0 l/m 4,0 km/h (1 Bft) E-SE 0,18 h 0,381 mm 195 W/m 17,4 C 23,2 C 7,6 km/h (2 Bft)
03/09/2007 18:00 21,8 C 77 % 1009,0 hPa 0,0 l/m 3,2 km/h (1 Bft) E-SE 0,00 h 0,152 mm 97 W/m 17,6 C 21,8 C 5,3 km/h (1 Bft)
03/09/2007 19:00 21,2 C 79 % 1008,4 hPa 0,0 l/m 0,7 km/h (0 Bft) E-SE 0,08 h 0,076 mm 40 W/m 17,3 C 21,2 C 1,9 km/h (1 Bft)
03/09/2007 20:00 20,0 C 83 % 1008,3 hPa 0,0 l/m 0,3 km/h (0 Bft) E-SE 0,00 h 0,025 mm 0 W/m 17,0 C 20,0 C 1,1 km/h (1 Bft)
03/09/2007 21:00 19,4 C 86 % 1008,2 hPa 0,0 l/m 0,9 km/h (0 Bft) E-SE 0,00 h 0,000 mm 0 W/m 16,9 C 19,4 C 2,3 km/h (1 Bft)
03/09/2007 22:00 19,3 C 86 % 1007,8 hPa 0,0 l/m 0,4 km/h (0 Bft) E-SE 0,00 h 0,025 mm 0 W/m 16,9 C 19,3 C 0,7 km/h (0 Bft)
03/09/2007 23:00 18,9 C 87 % 1007,5 hPa 0,0 l/m 1,6 km/h (1 Bft) E-SE 0,00 h 0,025 mm 0 W/m 16,6 C 18,9 C 3,0 km/h (1 Bft)
04/09/2007 00:00 18,7 C 87 % 1006,9 hPa 0,0 l/m 2,0 km/h (1 Bft) E-SE 0,00 h 0,025 mm 0 W/m 16,5 C 18,7 C 3,5 km/h (1 Bft)
04/09/2007 01:00 18,5 C 87 % 1006,4 hPa 0,0 l/m 1,3 km/h (1 Bft) SO 0,00 h 0,025 mm 0 W/m 16,3 C 18,5 C 3,2 km/h (1 Bft)
04/09/2007 02:00 18,3 C 88 % 1005,7 hPa 0,0 l/m 1,6 km/h (1 Bft) NO 0,00 h 0,025 mm 0 W/m 16,3 C 18,3 C 3,1 km/h (1 Bft)
04/09/2007 03:00 18,2 C 89 % 1005,4 hPa 0,0 l/m 2,1 km/h (1 Bft) NO 0,00 h 0,025 mm 0 W/m 16,3 C 18,2 C 3,9 km/h (1 Bft)
04/09/2007 04:00 17,9 C 87 % 1005,4 hPa 0,0 l/m 3,0 km/h (1 Bft) NO 0,00 h 0,025 mm 0 W/m 15,6 C 17,9 C 5,2 km/h (1 Bft)
04/09/2007 05:00 17,6 C 86 % 1005,0 hPa 0,0 l/m 3,2 km/h (1 Bft) O-NO 0,00 h 0,025 mm 0 W/m 15,3 C 17,6 C 5,3 km/h (1 Bft)
04/09/2007 06:00 17,5 C 87 % 1005,2 hPa 0,0 l/m 3,7 km/h (1 Bft) O-NO 0,00 h 0,025 mm 0 W/m 15,2 C 17,5 C 5,2 km/h (1 Bft)
04/09/2007 07:00 17,3 C 86 % 1005,2 hPa 0,0 l/m 5,4 km/h (1 Bft) O-NO 0,12 h 0,025 mm 34 W/m 14,9 C 17,3 C 7,2 km/h (2 Bft)
04/09/2007 08:00 18,4 C 81 % 1005,7 hPa 0,0 l/m 1,7 km/h (1 Bft) NO 0,10 h 0,025 mm 126 W/m 15,1 C 18,4 C 3,1 km/h (1 Bft)
04/09/2007 09:00 20,9 C 76 % 1005,8 hPa 0,0 l/m 1,4 km/h (1 Bft) NO 0,68 h 0,076 mm 317 W/m 16,4 C 20,9 C 3,5 km/h (1 Bft)
04/09/2007 10:00 23,1 C 67 % 1006,5 hPa 0,0 l/m 4,5 km/h (1 Bft) E-SE 0,75 h 0,203 mm 427 W/m 16,6 C 23,1 C 7,6 km/h (2 Bft)
04/09/2007 11:00 24,7 C 58 % 1006,7 hPa 0,0 l/m 8,3 km/h (2 Bft) SE 0,97 h 0,279 mm 708 W/m 15,8 C 24,7 C 13,1 km/h (3 Bft)
04/09/2007 12:00 25,0 C 58 % 1006,7 hPa 0,0 l/m 13,2 km/h (3 Bft) S 0,63 h 0,483 mm 615 W/m 16,3 C 25,0 C 19,5 km/h (3 Bft)
04/09/2007 13:00 25,5 C 49 % 1007,0 hPa 0,0 l/m 15,3 km/h (3 Bft) S 0,92 h 0,483 mm 844 W/m 14,1 C 25,5 C 22,4 km/h (4 Bft)
04/09/2007 14:00 25,4 C 46 % 1007,3 hPa 0,0 l/m 13,5 km/h (3 Bft) S 0,75 h 0,635 mm 695 W/m 13,1 C 25,4 C 20,0 km/h (4 Bft)
04/09/2007 15:00 24,9 C 46 % 1007,5 hPa 0,0 l/m 11,2 km/h (2 Bft) S-SE 0,60 h 0,533 mm 537 W/m 12,4 C 24,9 C 16,8 km/h (3 Bft)
04/09/2007 16:00 25,6 C 41 % 1007,6 hPa 0,0 l/m 8,6 km/h (2 Bft) S-SE 1,00 h 0,432 mm 588 W/m 11,5 C 25,6 C 15,2 km/h (3 Bft)
04/09/2007 17:00 24,1 C 46 % 1008,0 hPa 0,0 l/m 8,4 km/h (2 Bft) S-SE 1,00 h 0,457 mm 367 W/m 11,6 C 24,1 C 14,5 km/h (3 Bft)
04/09/2007 18:00 23,6 C 47 % 1008,5 hPa 0,0 l/m 4,7 km/h (1 Bft) E 1,00 h 0,305 mm 200 W/m 11,7 C 23,6 C 8,2 km/h (2 Bft)
04/09/2007 19:00 21,9 C 54 % 1009,0 hPa 0,0 l/m 1,1 km/h (1 Bft) SE 0,40 h 0,178 mm 44 W/m 12,3 C 21,9 C 3,3 km/h (1 Bft)
04/09/2007 20:00 19,9 C 64 % 1009,7 hPa 0,0 l/m 0,4 km/h (0 Bft) SE 0,00 h 0,051 mm 5 W/m 12,9 C 19,9 C 1,2 km/h (1 Bft)
04/09/2007 21:00 18,7 C 67 % 1010,6 hPa 0,0 l/m 3,4 km/h (1 Bft) NO 0,00 h 0,000 mm 0 W/m 12,4 C 18,7 C 5,6 km/h (1 Bft)
04/09/2007 22:00 17,9 C 67 % 1011,3 hPa 0,0 l/m 3,4 km/h (1 Bft) NO 0,00 h 0,051 mm 0 W/m 11,7 C 17,9 C 6,0 km/h (2 Bft)
04/09/2007 23:00 17,8 C 65 % 1011,9 hPa 0,0 l/m 4,1 km/h (1 Bft) O-NO 0,00 h 0,051 mm 0 W/m 11,2 C 17,8 C 6,3 km/h (2 Bft)
05/09/2007 00:00 18,0 C 64 % 1012,5 hPa 0,0 l/m 3,4 km/h (1 Bft) O-NO 0,00 h 0,051 mm 0 W/m 11,2 C 18,0 C 4,9 km/h (1 Bft)
05/09/2007 01:00 17,9 C 66 % 1013,1 hPa 0,0 l/m 1,8 km/h (1 Bft) NO 0,00 h 0,051 mm 0 W/m 11,3 C 17,9 C 3,3 km/h (1 Bft)
05/09/2007 02:00 17,8 C 67 % 1013,4 hPa 0,0 l/m 5,5 km/h (1 Bft) NO 0,00 h 0,051 mm 0 W/m 11,5 C 17,8 C 8,2 km/h (2 Bft)
05/09/2007 03:00 17,7 C 66 % 1013,6 hPa 0,0 l/m 6,8 km/h (2 Bft) O-NO 0,00 h 0,051 mm 0 W/m 11,3 C 17,7 C 11,0 km/h (2 Bft)
05/09/2007 04:00 16,6 C 70 % 1013,9 hPa 0,0 l/m 2,9 km/h (1 Bft) O-NO 0,00 h 0,051 mm 0 W/m 11,0 C 16,6 C 4,5 km/h (1 Bft)
05/09/2007 05:00 16,4 C 67 % 1014,4 hPa 0,0 l/m 3,3 km/h (1 Bft) O-NO 0,00 h 0,051 mm 0 W/m 10,4 C 16,4 C 4,4 km/h (1 Bft)
05/09/2007 06:00 16,2 C 66 % 1015,1 hPa 0,0 l/m 3,9 km/h (1 Bft) SO 0,00 h 0,051 mm 5 W/m 9,9 C 16,2 C 5,4 km/h (1 Bft)
05/09/2007 07:00 16,2 C 68 % 1016,1 hPa 0,0 l/m 7,6 km/h (2 Bft) O 0,12 h 0,025 mm 31 W/m 10,1 C 16,2 C 10,6 km/h (2 Bft)
05/09/2007 08:00 18,5 C 57 % 1016,6 hPa 0,0 l/m 11,3 km/h (2 Bft) O-SO 0,40 h 0,051 mm 143 W/m 9,7 C 18,5 C 15,5 km/h (3 Bft)
05/09/2007 09:00 20,3 C 43 % 1016,9 hPa 0,0 l/m 12,7 km/h (3 Bft) S-SO 1,00 h 0,152 mm 375 W/m 7,3 C 20,3 C 17,1 km/h (3 Bft)
05/09/2007 10:00 21,4 C 40 % 1017,3 hPa 0,0 l/m 14,0 km/h (3 Bft) S 1,00 h 0,330 mm 531 W/m 7,2 C 21,4 C 20,0 km/h (4 Bft)
05/09/2007 11:00 22,1 C 38 % 1017,2 hPa 0,0 l/m 14,1 km/h (3 Bft) S 1,00 h 0,432 mm 651 W/m 7,0 C 22,1 C 20,5 km/h (4 Bft)
05/09/2007 12:00 22,2 C 39 % 1016,8 hPa 0,0 l/m 17,2 km/h (3 Bft) S 1,00 h 0,533 mm 730 W/m 7,7 C 22,2 C 24,4 km/h (4 Bft)
05/09/2007 13:00 22,4 C 39 % 1016,5 hPa 0,0 l/m 14,9 km/h (3 Bft) S 1,00 h 0,584 mm 758 W/m 7,8 C 22,4 C 22,3 km/h (4 Bft)
05/09/2007 14:00 22,1 C 41 % 1016,4 hPa 0,0 l/m 14,4 km/h (3 Bft) S 0,93 h 0,584 mm 663 W/m 8,1 C 22,1 C 22,0 km/h (4 Bft)
05/09/2007 15:00 21,6 C 43 % 1016,4 hPa 0,0 l/m 12,2 km/h (2 Bft) S 0,87 h 0,533 mm 482 W/m 8,3 C 21,6 C 19,5 km/h (3 Bft)
05/09/2007 16:00 21,8 C 44 % 1016,2 hPa 0,0 l/m 12,5 km/h (3 Bft) S-SE 1,00 h 0,381 mm 493 W/m 9,0 C 21,8 C 18,8 km/h (3 Bft)
05/09/2007 17:00 21,9 C 48 % 1016,1 hPa 0,0 l/m 11,1 km/h (2 Bft) E 0,87 h 0,406 mm 382 W/m 10,4 C 21,9 C 16,9 km/h (3 Bft)
05/09/2007 18:00 20,6 C 55 % 1016,3 hPa 0,0 l/m 9,9 km/h (2 Bft) E 0,78 h 0,305 mm 160 W/m 11,1 C 20,6 C 15,2 km/h (3 Bft)
05/09/2007 19:00 19,3 C 59 % 1016,6 hPa 0,0 l/m 8,7 km/h (2 Bft) E-NE 0,37 h 0,178 mm 45 W/m 11,0 C 19,3 C 12,3 km/h (3 Bft)
05/09/2007 20:00 17,3 C 66 % 1016,7 hPa 0,0 l/m 3,1 km/h (1 Bft) N-NE 0,00 h 0,076 mm 5 W/m 10,8 C 17,3 C 5,0 km/h (1 Bft)
05/09/2007 21:00 15,7 C 70 % 1017,1 hPa 0,0 l/m 0,5 km/h (0 Bft) N-NE 0,00 h 0,025 mm 0 W/m 10,2 C 15,7 C 2,1 km/h (1 Bft)
05/09/2007 22:00 15,7 C 69 % 1017,4 hPa 0,0 l/m 3,4 km/h (1 Bft) NO 0,00 h 0,025 mm 0 W/m 10,1 C 15,7 C 5,8 km/h (1 Bft)
05/09/2007 23:00 15,6 C 68 % 1017,6 hPa 0,0 l/m 5,3 km/h (1 Bft) O-NO 0,00 h 0,051 mm 0 W/m 9,6 C 15,6 C 8,0 km/h (2 Bft)
06/09/2007 00:00 15,4 C 67 % 1017,6 hPa 0,0 l/m 4,9 km/h (1 Bft) O-NO 0,00 h 0,051 mm 0 W/m 9,2 C 15,4 C 7,5 km/h (2 Bft)
06/09/2007 01:00 15,0 C 68 % 1017,4 hPa 0,0 l/m 3,7 km/h (1 Bft) O-NO 0,00 h 0,051 mm 0 W/m 9,1 C 15,0 C 6,0 km/h (2 Bft)
06/09/2007 02:00 14,7 C 66 % 1017,2 hPa 0,0 l/m 3,9 km/h (1 Bft) NO 0,00 h 0,051 mm 0 W/m 8,5 C 14,7 C 6,1 km/h (2 Bft)
06/09/2007 03:00 14,1 C 65 % 1017,0 hPa 0,0 l/m 5,5 km/h (1 Bft) NO 0,00 h 0,051 mm 0 W/m 7,7 C 14,1 C 8,0 km/h (2 Bft)
06/09/2007 04:00 14,2 C 60 % 1016,7 hPa 0,0 l/m 3,2 km/h (1 Bft) NO 0,00 h 0,051 mm 0 W/m 6,5 C 14,2 C 5,2 km/h (1 Bft)
06/09/2007 05:00 14,2 C 54 % 1016,2 hPa 0,0 l/m 5,5 km/h (1 Bft) O-NO 0,00 h 0,051 mm 0 W/m 5,0 C 14,2 C 7,5 km/h (2 Bft)
06/09/2007 06:00 14,2 C 48 % 1015,7 hPa 0,0 l/m 8,3 km/h (2 Bft) NO 0,00 h 0,076 mm 0 W/m 3,4 C 14,2 C 11,9 km/h (2 Bft)
06/09/2007 07:00 14,9 C 43 % 1015,3 hPa 0,0 l/m 9,9 km/h (2 Bft) O-NO 0,00 h 0,051 mm 17 W/m 2,4 C 14,9 C 13,2 km/h (3 Bft)
06/09/2007 08:00 15,9 C 42 % 1015,5 hPa 0,0 l/m 1,0 km/h (0 Bft) S 0,35 h 0,076 mm 132 W/m 3,0 C 15,9 C 2,1 km/h (1 Bft)
06/09/2007 09:00 20,0 C 33 % 1015,1 hPa 0,0 l/m 1,7 km/h (1 Bft) E 1,00 h 0,076 mm 380 W/m 3,2 C 20,0 C 3,3 km/h (1 Bft)
06/09/2007 10:00 22,1 C 25 % 1014,6 hPa 0,0 l/m 10,9 km/h (2 Bft) SO 0,97 h 0,254 mm 530 W/m 0,8 C 22,1 C 15,9 km/h (3 Bft)
06/09/2007 11:00 23,7 C 23 % 1014,4 hPa 0,0 l/m 10,0 km/h (2 Bft) S-SO 1,00 h 0,457 mm 664 W/m 1,3 C 23,7 C 15,5 km/h (3 Bft)
06/09/2007 12:00 24,1 C 26 % 1014,0 hPa 0,0 l/m 18,2 km/h (3 Bft) S 1,00 h 0,533 mm 743 W/m 3,5 C 24,1 C 24,6 km/h (4 Bft)
06/09/2007 13:00 23,5 C 37 % 1014,0 hPa 0,0 l/m 19,2 km/h (3 Bft) S 0,87 h 0,660 mm 651 W/m 7,9 C 23,5 C 26,4 km/h (4 Bft)
06/09/2007 14:00 23,5 C 41 % 1014,0 hPa 0,0 l/m 18,5 km/h (3 Bft) S-SE 0,97 h 0,584 mm 677 W/m 9,5 C 23,5 C 25,0 km/h (4 Bft)
06/09/2007 15:00 23,9 C 42 % 1013,6 hPa 0,0 l/m 16,2 km/h (3 Bft) S 1,00 h 0,584 mm 648 W/m 10,1 C 23,9 C 22,0 km/h (4 Bft)
06/09/2007 16:00 24,3 C 40 % 1013,4 hPa 0,0 l/m 15,9 km/h (3 Bft) S 1,00 h 0,559 mm 517 W/m 10,0 C 24,3 C 21,5 km/h (4 Bft)
06/09/2007 17:00 23,4 C 44 % 1013,4 hPa 0,0 l/m 16,6 km/h (3 Bft) S 1,00 h 0,483 mm 363 W/m 10,6 C 23,4 C 22,5 km/h (4 Bft)
06/09/2007 18:00 22,8 C 50 % 1013,4 hPa 0,0 l/m 8,5 km/h (2 Bft) S-SE 1,00 h 0,381 mm 195 W/m 11,8 C 22,8 C 12,2 km/h (2 Bft)
06/09/2007 19:00 21,4 C 55 % 1013,4 hPa 0,0 l/m 1,4 km/h (1 Bft) S 0,38 h 0,178 mm 40 W/m 12,0 C 21,4 C 3,1 km/h (1 Bft)
06/09/2007 20:00 18,9 C 64 % 1014,0 hPa 0,0 l/m 1,9 km/h (1 Bft) N-NE 0,00 h 0,051 mm 5 W/m 11,9 C 18,9 C 3,6 km/h (1 Bft)
06/09/2007 21:00 17,5 C 71 % 1014,4 hPa 0,0 l/m 2,5 km/h (1 Bft) N 0,00 h 0,025 mm 0 W/m 12,1 C 17,5 C 5,0 km/h (1 Bft)
06/09/2007 22:00 16,7 C 74 % 1014,4 hPa 0,0 l/m 1,3 km/h (1 Bft) N-NE 0,00 h 0,025 mm 0 W/m 12,0 C 16,7 C 3,3 km/h (1 Bft)
06/09/2007 23:00 16,6 C 70 % 1014,6 hPa 0,0 l/m 1,8 km/h (1 Bft) N-NO 0,00 h 0,025 mm 0 W/m 11,1 C 16,6 C 3,9 km/h (1 Bft)
07/09/2007 00:00 17,0 C 61 % 1014,8 hPa 0,0 l/m 4,7 km/h (1 Bft) N-NO 0,00 h 0,025 mm 0 W/m 9,5 C 17,0 C 6,8 km/h (2 Bft)
07/09/2007 01:00 17,2 C 56 % 1015,2 hPa 0,0 l/m 3,3 km/h (1 Bft) N-NO 0,00 h 0,051 mm 0 W/m 8,3 C 17,2 C 5,6 km/h (1 Bft)
07/09/2007 02:00 17,0 C 54 % 1015,3 hPa 0,0 l/m 3,0 km/h (1 Bft) NO 0,00 h 0,051 mm 0 W/m 7,5 C 17,0 C 5,3 km/h (1 Bft)
07/09/2007 03:00 17,1 C 53 % 1014,9 hPa 0,0 l/m 4,1 km/h (1 Bft) O-NO 0,00 h 0,051 mm 0 W/m 7,5 C 17,1 C 6,9 km/h (2 Bft)
07/09/2007 04:00 17,4 C 49 % 1014,9 hPa 0,0 l/m 5,1 km/h (1 Bft) NO 0,00 h 0,051 mm 0 W/m 6,6 C 17,4 C 7,5 km/h (2 Bft)
07/09/2007 05:00 17,2 C 46 % 1014,8 hPa 0,0 l/m 4,1 km/h (1 Bft) O-NO 0,00 h 0,076 mm 0 W/m 5,6 C 17,2 C 6,2 km/h (2 Bft)
07/09/2007 06:00 17,0 C 43 % 1014,9 hPa 0,0 l/m 3,5 km/h (1 Bft) NO 0,00 h 0,076 mm 0 W/m 4,5 C 17,0 C 5,0 km/h (1 Bft)
07/09/2007 07:00 17,3 C 40 % 1015,1 hPa 0,0 l/m 3,5 km/h (1 Bft) O-NO 0,03 h 0,051 mm 18 W/m 3,6 C 17,3 C 5,1 km/h (1 Bft)
07/09/2007 08:00 18,8 C 37 % 1015,4 hPa 0,0 l/m 1,5 km/h (1 Bft) NO 0,25 h 0,051 mm 125 W/m 3,7 C 18,8 C 3,6 km/h (1 Bft)
07/09/2007 09:00 23,4 C 30 % 1015,1 hPa 0,0 l/m 1,8 km/h (1 Bft) E 1,00 h 0,102 mm 374 W/m 4,7 C 23,4 C 3,4 km/h (1 Bft)
07/09/2007 10:00 25,4 C 30 % 1014,9 hPa 0,0 l/m 7,6 km/h (2 Bft) S 1,00 h 0,254 mm 545 W/m 6,5 C 25,4 C 12,2 km/h (2 Bft)
07/09/2007 11:00 26,7 C 29 % 1014,4 hPa 0,0 l/m 7,9 km/h (2 Bft) S-SE 1,00 h 0,432 mm 644 W/m 6,8 C 26,7 C 13,3 km/h (3 Bft)
07/09/2007 12:00 26,8 C 27 % 1014,2 hPa 0,0 l/m 13,4 km/h (3 Bft) SE 1,00 h 0,508 mm 684 W/m 6,1 C 26,8 C 20,7 km/h (4 Bft)
07/09/2007 13:00 27,5 C 27 % 1013,9 hPa 0,0 l/m 9,3 km/h (2 Bft) SE 1,00 h 0,610 mm 726 W/m 7,0 C 27,5 C 15,6 km/h (3 Bft)
07/09/2007 14:00 27,4 C 32 % 1013,6 hPa 0,0 l/m 9,4 km/h (2 Bft) S 0,97 h 0,584 mm 684 W/m 9,3 C 27,4 C 15,8 km/h (3 Bft)
07/09/2007 15:00 26,9 C 27 % 1013,2 hPa 0,0 l/m 16,2 km/h (3 Bft) S 0,87 h 0,559 mm 566 W/m 6,1 C 26,9 C 22,8 km/h (4 Bft)
07/09/2007 16:00 26,5 C 29 % 1013,2 hPa 0,0 l/m 15,6 km/h (3 Bft) S 0,88 h 0,559 mm 474 W/m 6,8 C 26,5 C 21,6 km/h (4 Bft)
07/09/2007 17:00 25,3 C 35 % 1013,3 hPa 0,0 l/m 9,1 km/h (2 Bft) S-SE 0,67 h 0,483 mm 264 W/m 8,8 C 25,3 C 12,9 km/h (3 Bft)
07/09/2007 18:00 23,8 C 49 % 1013,6 hPa 0,0 l/m 5,3 km/h (1 Bft) S-SE 0,72 h 0,279 mm 176 W/m 12,4 C 23,8 C 8,3 km/h (2 Bft)
07/09/2007 19:00 21,6 C 64 % 1013,8 hPa 0,0 l/m 3,8 km/h (1 Bft) NE 0,58 h 0,152 mm 52 W/m 14,6 C 21,6 C 6,0 km/h (2 Bft)
07/09/2007 20:00 19,3 C 75 % 1014,1 hPa 0,0 l/m 1,0 km/h (0 Bft) NE 0,00 h 0,051 mm 5 W/m 14,7 C 19,3 C 2,9 km/h (1 Bft)
07/09/2007 21:00 18,3 C 78 % 1014,4 hPa 0,0 l/m 0,3 km/h (0 Bft) NE 0,00 h 0,000 mm 0 W/m 14,4 C 18,3 C 1,3 km/h (1 Bft)
07/09/2007 22:00 17,5 C 80 % 1014,7 hPa 0,0 l/m 0,6 km/h (0 Bft) NE 0,00 h 0,025 mm 0 W/m 14,0 C 17,5 C 1,8 km/h (1 Bft)
07/09/2007 23:00 17,0 C 79 % 1015,0 hPa 0,0 l/m 0,9 km/h (0 Bft) NE 0,00 h 0,025 mm 0 W/m 13,5 C 17,0 C 2,6 km/h (1 Bft)
08/09/2007 00:00 16,8 C 74 % 1015,2 hPa 0,0 l/m 0,8 km/h (0 Bft) NE 0,00 h 0,025 mm 0 W/m 12,2 C 16,8 C 2,2 km/h (1 Bft)
08/09/2007 01:00 16,6 C 72 % 1015,5 hPa 0,0 l/m 1,5 km/h (1 Bft) N-NO 0,00 h 0,025 mm 0 W/m 11,5 C 16,6 C 3,4 km/h (1 Bft)
08/09/2007 02:00 16,8 C 67 % 1015,2 hPa 0,0 l/m 2,0 km/h (1 Bft) N-NO 0,00 h 0,025 mm 0 W/m 10,7 C 16,8 C 3,5 km/h (1 Bft)
08/09/2007 03:00 16,7 C 65 % 1014,8 hPa 0,0 l/m 2,9 km/h (1 Bft) N-NO 0,00 h 0,051 mm 0 W/m 10,1 C 16,7 C 4,7 km/h (1 Bft)
08/09/2007 04:00 16,6 C 70 % 1014,8 hPa 0,0 l/m 3,3 km/h (1 Bft) N-NO 0,00 h 0,051 mm 0 W/m 11,1 C 16,6 C 4,5 km/h (1 Bft)
08/09/2007 05:00 16,5 C 73 % 1014,8 hPa 0,0 l/m 2,3 km/h (1 Bft) N-NO 0,00 h 0,051 mm 0 W/m 11,7 C 16,5 C 3,4 km/h (1 Bft)
08/09/2007 06:00 16,1 C 81 % 1014,8 hPa 0,0 l/m 6,4 km/h (2 Bft) O-SO 0,00 h 0,025 mm 0 W/m 12,8 C 16,1 C 8,0 km/h (2 Bft)
08/09/2007 07:00 16,6 C 78 % 1015,0 hPa 0,0 l/m 6,3 km/h (2 Bft) O 0,02 h 0,025 mm 17 W/m 12,8 C 16,6 C 8,2 km/h (2 Bft)
08/09/2007 08:00 18,2 C 72 % 1015,0 hPa 0,0 l/m 3,9 km/h (1 Bft) S-SO 0,25 h 0,025 mm 120 W/m 13,0 C 18,2 C 5,8 km/h (2 Bft)
08/09/2007 09:00 21,9 C 57 % 1015,0 hPa 0,0 l/m 2,3 km/h (1 Bft) E 1,00 h 0,102 mm 369 W/m 12,9 C 21,9 C 4,4 km/h (1 Bft)
08/09/2007 10:00 24,0 C 53 % 1015,3 hPa 0,0 l/m 5,6 km/h (1 Bft) E-NE 1,00 h 0,254 mm 521 W/m 13,7 C 24,0 C 8,6 km/h (2 Bft)
08/09/2007 11:00 24,4 C 56 % 1015,3 hPa 0,0 l/m 10,0 km/h (2 Bft) E 1,00 h 0,381 mm 643 W/m 15,1 C 24,4 C 15,2 km/h (3 Bft)
08/09/2007 12:00 23,9 C 61 % 1015,4 hPa 0,0 l/m 9,4 km/h (2 Bft) E 1,00 h 0,483 mm 716 W/m 16,0 C 23,9 C 15,4 km/h (3 Bft)
08/09/2007 13:00 24,1 C 65 % 1015,4 hPa 0,0 l/m 9,8 km/h (2 Bft) E 1,00 h 0,508 mm 742 W/m 17,0 C 24,1 C 15,2 km/h (3 Bft)
08/09/2007 14:00 24,0 C 64 % 1015,4 hPa 0,0 l/m 8,9 km/h (2 Bft) E 1,00 h 0,508 mm 713 W/m 16,8 C 24,0 C 14,9 km/h (3 Bft)
08/09/2007 15:00 24,1 C 62 % 1015,0 hPa 0,0 l/m 8,2 km/h (2 Bft) E 1,00 h 0,483 mm 630 W/m 16,4 C 24,1 C 13,6 km/h (3 Bft)
08/09/2007 16:00 24,4 C 49 % 1014,7 hPa 0,0 l/m 6,2 km/h (2 Bft) E 1,00 h 0,432 mm 509 W/m 13,0 C 24,4 C 10,2 km/h (2 Bft)
08/09/2007 17:00 23,8 C 44 % 1014,3 hPa 0,0 l/m 3,0 km/h (1 Bft) SE 1,00 h 0,356 mm 356 W/m 10,8 C 23,8 C 5,9 km/h (2 Bft)
08/09/2007 18:00 23,0 C 45 % 1014,2 hPa 0,0 l/m 1,4 km/h (1 Bft) E-NE 1,00 h 0,254 mm 187 W/m 10,4 C 23,0 C 3,0 km/h (1 Bft)
08/09/2007 19:00 21,1 C 59 % 1014,0 hPa 0,0 l/m 0,2 km/h (0 Bft) E-NE 0,32 h 0,127 mm 36 W/m 12,8 C 21,1 C 1,3 km/h (1 Bft)
08/09/2007 20:00 18,5 C 76 % 1014,2 hPa 0,0 l/m 0,0 km/h (0 Bft) N 0,00 h 0,025 mm 0 W/m 14,3 C 18,5 C 0,1 km/h (0 Bft)
08/09/2007 21:00 17,7 C 79 % 1014,4 hPa 0,0 l/m 0,0 km/h (0 Bft) N 0,00 h 0,000 mm 0 W/m 14,1 C 17,7 C 0,0 km/h (0 Bft)
08/09/2007 22:00 17,1 C 81 % 1014,4 hPa 0,0 l/m 0,6 km/h (0 Bft) E-NE 0,00 h 0,025 mm 0 W/m 13,8 C 17,1 C 1,1 km/h (1 Bft)
08/09/2007 23:00 17,1 C 72 % 1014,4 hPa 0,0 l/m 2,5 km/h (1 Bft) NO 0,00 h 0,025 mm 0 W/m 12,0 C 17,1 C 3,7 km/h (1 Bft)
09/09/2007 00:00 16,9 C 70 % 1014,2 hPa 0,0 l/m 0,3 km/h (0 Bft) NO 0,00 h 0,025 mm 0 W/m 11,4 C 16,9 C 0,6 km/h (0 Bft)
09/09/2007 01:00 16,0 C 76 % 1014,3 hPa 0,0 l/m 0,6 km/h (0 Bft) NO 0,00 h 0,025 mm 0 W/m 11,7 C 16,0 C 1,8 km/h (1 Bft)
09/09/2007 02:00 15,7 C 77 % 1014,4 hPa 0,0 l/m 1,1 km/h (1 Bft) N-NO 0,00 h 0,025 mm 0 W/m 11,7 C 15,7 C 3,1 km/h (1 Bft)
09/09/2007 03:00 15,5 C 81 % 1013,7 hPa 0,0 l/m 1,1 km/h (1 Bft) N-NO 0,00 h 0,025 mm 0 W/m 12,3 C 15,5 C 3,4 km/h (1 Bft)
09/09/2007 04:00 15,1 C 84 % 1013,3 hPa 0,0 l/m 1,0 km/h (0 Bft) N 0,00 h 0,025 mm 0 W/m 12,5 C 15,1 C 2,7 km/h (1 Bft)
09/09/2007 05:00 14,7 C 81 % 1013,0 hPa 0,0 l/m 3,4 km/h (1 Bft) N-NO 0,00 h 0,025 mm 0 W/m 11,5 C 14,7 C 5,5 km/h (1 Bft)
09/09/2007 06:00 15,6 C 77 % 1012,8 hPa 0,0 l/m 4,0 km/h (1 Bft) N-NO 0,00 h 0,025 mm 0 W/m 11,6 C 15,6 C 6,3 km/h (2 Bft)
09/09/2007 07:00 15,6 C 80 % 1013,0 hPa 0,0 l/m 2,3 km/h (1 Bft) N-NO 0,12 h 0,025 mm 24 W/m 12,2 C 15,6 C 4,5 km/h (1 Bft)
09/09/2007 08:00 17,3 C 76 % 1012,9 hPa 0,0 l/m 2,5 km/h (1 Bft) NE 0,38 h 0,025 mm 123 W/m 12,9 C 17,3 C 4,6 km/h (1 Bft)
09/09/2007 09:00 20,7 C 66 % 1012,9 hPa 0,0 l/m 6,2 km/h (2 Bft) NE 1,00 h 0,076 mm 358 W/m 14,1 C 20,7 C 9,7 km/h (2 Bft)
09/09/2007 10:00 22,4 C 64 % 1013,0 hPa 0,0 l/m 10,6 km/h (2 Bft) E-NE 0,98 h 0,254 mm 510 W/m 15,3 C 22,4 C 15,8 km/h (3 Bft)
09/09/2007 11:00 22,5 C 68 % 1012,9 hPa 0,0 l/m 10,3 km/h (2 Bft) E 0,37 h 0,356 mm 393 W/m 16,3 C 22,5 C 16,2 km/h (3 Bft)
09/09/2007 12:00 22,8 C 69 % 1012,7 hPa 0,0 l/m 10,9 km/h (2 Bft) E 0,80 h 0,279 mm 685 W/m 16,8 C 22,8 C 17,0 km/h (3 Bft)
09/09/2007 13:00 23,2 C 67 % 1012,7 hPa 0,0 l/m 10,2 km/h (2 Bft) E 0,72 h 0,457 mm 730 W/m 16,6 C 23,2 C 16,7 km/h (3 Bft)
09/09/2007 14:00 23,3 C 66 % 1012,4 hPa 0,0 l/m 11,3 km/h (2 Bft) E-NE 0,30 h 0,457 mm 444 W/m 16,6 C 23,3 C 16,4 km/h (3 Bft)
09/09/2007 15:00 23,8 C 61 % 1012,0 hPa 0,0 l/m 11,8 km/h (2 Bft) E-NE 1,00 h 0,356 mm 660 W/m 15,7 C 23,8 C 17,5 km/h (3 Bft)
09/09/2007 16:00 23,6 C 61 % 1011,7 hPa 0,0 l/m 8,8 km/h (2 Bft) E-NE 1,00 h 0,457 mm 498 W/m 15,6 C 23,6 C 13,3 km/h (3 Bft)
09/09/2007 17:00 23,1 C 63 % 1011,3 hPa 0,0 l/m 6,0 km/h (2 Bft) E-NE 1,00 h 0,356 mm 341 W/m 15,8 C 23,1 C 9,0 km/h (2 Bft)
09/09/2007 18:00 22,6 C 62 % 1010,9 hPa 0,0 l/m 4,6 km/h (1 Bft) E-NE 1,00 h 0,254 mm 172 W/m 15,0 C 22,6 C 7,2 km/h (2 Bft)
09/09/2007 19:00 20,8 C 70 % 1010,9 hPa 0,0 l/m 2,2 km/h (1 Bft) E 0,27 h 0,127 mm 34 W/m 15,1 C 20,8 C 4,3 km/h (1 Bft)
09/09/2007 20:00 19,1 C 84 % 1011,3 hPa 0,0 l/m 2,4 km/h (1 Bft) E-SE 0,00 h 0,025 mm 0 W/m 16,4 C 19,1 C 4,5 km/h (1 Bft)
09/09/2007 21:00 18,2 C 87 % 1011,7 hPa 0,0 l/m 0,8 km/h (0 Bft) E-NE 0,00 h 0,000 mm 0 W/m 16,1 C 18,2 C 2,2 km/h (1 Bft)
09/09/2007 22:00 17,6 C 88 % 1011,8 hPa 0,0 l/m 0,6 km/h (0 Bft) E-NE 0,00 h 0,025 mm 0 W/m 15,6 C 17,6 C 2,2 km/h (1 Bft)
09/09/2007 23:00 17,2 C 88 % 1012,1 hPa 0,0 l/m 1,0 km/h (0 Bft) NE 0,00 h 0,025 mm 0 W/m 15,2 C 17,2 C 2,6 km/h (1 Bft)
Min-Date _ 06/09/07 06/09/07 04/09/07 - 03/09/07 - - - - 06/09/07 06/09/07 03/09/07
_ Min-Heure 05:56 11:16 05:00 - 00:00 - - - - 11:18 05:56 00:00
Minimum _ 13,7 C 19 % 1004,6 hPa - 0,0 km/h (0 Bft) - - - - -1,7 C 13,7 C 0,0 km/h (0 Bft)
Max-Date _ 07/09/07 04/09/07 06/09/07 03/09/07 06/09/07 - 03/09/07 06/09/07 09/09/07 03/09/07 07/09/07 05/09/07
_ Max-Heure 14:19 02:24 00:30 00:00 14:11 - 07:07 13:00 13:28 11:26 14:19 14:37
Maximum _ 28,4 C 89 % 1017,7 hPa 0,0 l/m 29,0 km/h
S-SE (5 Bft)
- 0,02 h 0,660 mm 995 W/m 18,7 C 28,4 C 40,2 km/h
S (6 Bft)
Moyenne _ 20,0 C 62 % 1013,0 hPa #0,0 l/m 5,7 km/h (1 Bft) NO #67:46 h #32,039 mm 390 W/m 11,9 C 20,0 C 8,9 km/h (2 Bft)
Roquefort les pins